createdAt,value
2019-03-09T00:02:13.435Z,86.40
2019-03-09T00:04:39.723Z,86.10
2019-03-09T00:07:06.019Z,86.80
2019-03-09T00:09:32.399Z,87.20
2019-03-09T00:11:58.852Z,87.30
2019-03-09T00:14:25.320Z,87.80
2019-03-09T00:16:51.608Z,87.60
2019-03-09T00:19:17.913Z,87.60
2019-03-09T00:21:44.320Z,87.30
2019-03-09T00:24:18.687Z,87.60
2019-03-09T00:26:47.995Z,88.00
2019-03-09T00:29:16.141Z,88.00
2019-03-09T00:31:44.447Z,88.00
2019-03-09T00:34:10.843Z,87.80
2019-03-09T00:36:37.230Z,87.80
2019-03-09T00:39:04.892Z,87.90
2019-03-09T00:41:31.156Z,88.10
2019-03-09T00:43:57.442Z,88.30
2019-03-09T00:46:23.695Z,88.50
2019-03-09T00:48:50.051Z,88.50
2019-03-09T00:51:16.325Z,88.70
2019-03-09T00:53:43.863Z,88.70
2019-03-09T00:56:10.498Z,88.70
2019-03-09T00:58:36.861Z,89.00
2019-03-09T01:01:03.314Z,88.90
2019-03-09T01:03:29.823Z,88.90
2019-03-09T01:05:56.087Z,89.10
2019-03-09T01:08:22.475Z,89.70
2019-03-09T01:10:48.965Z,89.70
2019-03-09T01:13:15.322Z,89.30
2019-03-09T01:15:41.602Z,89.00
2019-03-09T01:18:08.175Z,89.70
2019-03-09T01:20:34.548Z,90.00
2019-03-09T01:23:00.805Z,90.50
2019-03-09T01:25:27.155Z,90.80
2019-03-09T01:27:53.654Z,90.90
2019-03-09T01:30:20.245Z,90.90
2019-03-09T01:32:46.788Z,91.20
2019-03-09T01:35:13.285Z,91.70
2019-03-09T01:37:40.499Z,91.70
2019-03-09T01:40:10.095Z,92.20
2019-03-09T01:42:36.451Z,92.70
2019-03-09T01:45:05.317Z,92.70
2019-03-09T01:47:31.614Z,93.00
2019-03-09T01:49:57.870Z,92.90
2019-03-09T01:52:24.130Z,93.10
2019-03-09T01:54:50.436Z,92.90
2019-03-09T01:57:19.407Z,92.90
2019-03-09T01:59:48.495Z,93.10
2019-03-09T02:02:14.835Z,93.20
2019-03-09T02:04:41.099Z,93.20
2019-03-09T02:07:08.843Z,93.20
2019-03-09T02:09:35.342Z,93.50
2019-03-09T02:12:01.501Z,93.70
2019-03-09T02:14:28.803Z,93.20
2019-03-09T02:16:55.103Z,93.70
2019-03-09T02:19:21.406Z,94.10
2019-03-09T02:22:07.615Z,94.20
2019-03-09T02:24:34.055Z,94.50
2019-03-09T02:27:00.455Z,94.80
2019-03-09T02:29:26.821Z,95.00
2019-03-09T02:31:53.096Z,94.90
2019-03-09T02:34:19.574Z,95.20
2019-03-09T02:36:45.863Z,95.70
2019-03-09T02:39:19.931Z,95.30
2019-03-09T02:41:46.226Z,95.90
2019-03-09T02:44:12.599Z,95.90
2019-03-09T02:46:39.029Z,95.90
2019-03-09T02:49:05.329Z,96.10
2019-03-09T02:51:31.591Z,96.00
2019-03-09T02:53:57.859Z,96.00
2019-03-09T02:56:24.278Z,96.00
2019-03-09T02:58:50.610Z,96.10
2019-03-09T03:01:21.556Z,96.70
2019-03-09T03:03:47.850Z,96.90
2019-03-09T03:06:14.175Z,97.20
2019-03-09T03:08:41.533Z,96.90
2019-03-09T03:11:07.922Z,97.10
2019-03-09T03:13:34.319Z,97.70
2019-03-09T03:16:00.874Z,97.80
2019-03-09T03:18:27.112Z,98.10
2019-03-09T03:20:53.527Z,98.00
2019-03-09T03:23:19.903Z,98.00
2019-03-09T03:25:46.519Z,97.80
2019-03-09T03:28:12.893Z,98.10
2019-03-09T03:30:40.137Z,98.00
2019-03-09T03:33:06.432Z,98.20
2019-03-09T03:35:32.670Z,98.40
2019-03-09T03:37:59.019Z,98.70
2019-03-09T03:40:25.378Z,98.80
2019-03-09T03:42:51.865Z,98.80
2019-03-09T03:45:18.321Z,99.00
2019-03-09T03:47:44.790Z,98.80
2019-03-09T03:50:11.246Z,99.00
2019-03-09T03:52:37.541Z,99.10
2019-03-09T03:55:06.261Z,99.30
2019-03-09T03:57:32.599Z,99.30
2019-03-09T03:59:59.085Z,99.50
2019-03-09T04:02:25.565Z,99.60
2019-03-09T04:04:52.116Z,99.60
2019-03-09T04:07:18.607Z,99.90
2019-03-09T04:09:45.072Z,99.70
2019-03-09T04:12:11.474Z,99.40
2019-03-09T04:14:37.914Z,99.40
2019-03-09T04:17:04.455Z,99.40
2019-03-09T04:19:30.921Z,99.40
2019-03-09T04:21:57.274Z,99.30
2019-03-09T04:24:23.664Z,99.40
2019-03-09T04:26:50.261Z,99.70
2019-03-09T04:29:16.516Z,99.60
2019-03-09T04:31:43.019Z,99.60
2019-03-09T04:34:09.317Z,99.70
2019-03-09T04:36:35.704Z,99.70
2019-03-09T04:39:04.506Z,99.70
2019-03-09T04:41:30.851Z,99.80
2019-03-09T04:44:00.188Z,99.80
2019-03-09T04:46:26.455Z,99.90
2019-03-09T04:48:52.709Z,99.90
2019-03-09T04:51:18.973Z,99.90
2019-03-09T04:53:45.330Z,99.90
2019-03-09T04:56:12.049Z,99.90
2019-03-09T04:58:38.295Z,99.90
2019-03-09T05:01:04.544Z,99.90
2019-03-09T05:03:30.985Z,99.90
2019-03-09T05:05:57.291Z,99.90
2019-03-09T05:08:33.617Z,99.90
2019-03-09T05:11:03.425Z,99.90
2019-03-09T05:13:32.682Z,99.90
2019-03-09T05:15:58.880Z,99.90
2019-03-09T05:18:25.243Z,99.90
2019-03-09T05:20:51.523Z,99.90
2019-03-09T05:23:17.972Z,99.90
2019-03-09T05:25:44.386Z,99.90
2019-03-09T05:28:10.777Z,99.90
2019-03-09T05:30:43.011Z,99.90
2019-03-09T05:33:09.273Z,99.50
2019-03-09T05:35:35.848Z,99.10
2019-03-09T05:38:02.515Z,98.20
2019-03-09T05:40:28.919Z,98.20
2019-03-09T05:42:55.313Z,97.80
2019-03-09T05:45:21.569Z,97.70
2019-03-09T05:47:47.874Z,97.70
2019-03-09T05:50:14.119Z,97.60
2019-03-09T05:52:40.475Z,97.30
2019-03-09T05:55:10.132Z,97.20
2019-03-09T05:57:36.503Z,96.60
2019-03-09T06:00:06.468Z,96.60
2019-03-09T06:02:32.740Z,96.30
2019-03-09T06:04:59.231Z,95.90
2019-03-09T06:07:25.495Z,96.20
2019-03-09T06:09:51.821Z,96.10
2019-03-09T06:12:18.321Z,96.20
2019-03-09T06:14:44.851Z,96.40
2019-03-09T06:17:11.194Z,96.20
2019-03-09T06:19:37.456Z,95.80
2019-03-09T06:22:03.831Z,95.90
2019-03-09T06:24:30.413Z,96.00
2019-03-09T06:26:56.787Z,95.70
2019-03-09T06:29:23.123Z,95.20
2019-03-09T06:32:28.654Z,95.50
2019-03-09T06:34:55.350Z,95.20
2019-03-09T06:37:22.682Z,95.60
2019-03-09T06:39:49.057Z,95.80
2019-03-09T06:42:21.795Z,96.20
2019-03-09T06:44:48.084Z,96.30
2019-03-09T06:47:14.336Z,96.00
2019-03-09T06:49:40.736Z,95.70
2019-03-09T06:52:06.977Z,94.90
2019-03-09T06:54:33.342Z,94.80
2019-03-09T06:56:59.603Z,94.90
2019-03-09T06:59:26.072Z,94.00
2019-03-09T07:01:52.497Z,93.40
2019-03-09T07:04:18.955Z,93.00
2019-03-09T07:06:45.371Z,93.00
2019-03-09T07:09:11.642Z,93.10
2019-03-09T07:11:37.901Z,93.70
2019-03-09T07:14:16.551Z,93.50
2019-03-09T07:16:42.872Z,93.40
2019-03-09T07:19:09.226Z,93.20
2019-03-09T07:21:35.859Z,93.00
2019-03-09T07:24:02.279Z,92.20
2019-03-09T07:26:28.520Z,92.40
2019-03-09T07:28:55.376Z,92.00
2019-03-09T07:31:21.697Z,92.00
2019-03-09T07:33:51.781Z,91.90
2019-03-09T07:36:18.323Z,91.70
2019-03-09T07:38:44.716Z,91.20
2019-03-09T07:41:11.087Z,91.40
2019-03-09T07:43:39.345Z,91.10
2019-03-09T07:46:05.659Z,90.80
2019-03-09T07:48:32.000Z,90.80
2019-03-09T07:50:58.252Z,90.60
2019-03-09T07:53:24.547Z,90.80
2019-03-09T07:55:51.017Z,90.80
2019-03-09T07:58:17.406Z,91.10
2019-03-09T08:00:43.932Z,91.10
2019-03-09T08:03:10.334Z,91.30
2019-03-09T08:05:36.749Z,91.20
2019-03-09T08:08:03.453Z,91.00
2019-03-09T08:10:30.265Z,90.90
2019-03-09T08:12:56.773Z,91.20
2019-03-09T08:15:23.159Z,91.10
2019-03-09T08:17:49.672Z,90.80
2019-03-09T08:20:17.248Z,90.70
2019-03-09T08:22:43.853Z,90.30
2019-03-09T08:25:12.349Z,90.10
2019-03-09T08:27:38.786Z,90.30
2019-03-09T08:30:14.052Z,90.30
2019-03-09T08:32:40.502Z,89.70
2019-03-09T08:35:08.087Z,89.20
2019-03-09T08:37:34.340Z,89.70
2019-03-09T08:40:00.636Z,89.10
2019-03-09T08:42:27.009Z,89.00
2019-03-09T08:44:53.600Z,88.30
2019-03-09T08:47:20.026Z,88.50
2019-03-09T08:49:46.628Z,88.60
2019-03-09T08:52:13.048Z,89.30
2019-03-09T08:54:39.347Z,87.60
2019-03-09T08:57:08.416Z,87.80
2019-03-09T08:59:34.676Z,87.50
2019-03-09T09:02:01.047Z,87.50
2019-03-09T09:04:27.411Z,87.10
2019-03-09T09:06:53.855Z,87.50
2019-03-09T09:09:20.463Z,86.90
2019-03-09T09:11:46.821Z,87.10
2019-03-09T09:14:13.284Z,87.30
2019-03-09T09:16:39.751Z,85.60
2019-03-09T09:19:06.298Z,84.00
2019-03-09T09:21:32.812Z,84.00
2019-03-09T09:23:59.142Z,84.80
2019-03-09T09:26:25.630Z,85.30
2019-03-09T09:28:52.156Z,85.40
2019-03-09T09:31:18.494Z,85.00
2019-03-09T09:33:44.877Z,84.50
2019-03-09T09:36:11.228Z,84.00
2019-03-09T09:38:37.644Z,84.00
2019-03-09T09:41:04.107Z,83.00
2019-03-09T09:43:30.613Z,81.40
2019-03-09T09:45:57.215Z,81.40
2019-03-09T09:48:23.711Z,81.70
2019-03-09T09:50:50.004Z,82.50
2019-03-09T09:53:16.268Z,82.70
2019-03-09T09:55:42.813Z,83.00
2019-03-09T09:58:09.099Z,82.40
2019-03-09T10:00:35.652Z,82.80
2019-03-09T10:03:02.019Z,81.60
2019-03-09T10:05:28.618Z,81.90
2019-03-09T10:08:02.806Z,81.60
2019-03-09T10:10:29.978Z,81.30
2019-03-09T10:12:56.915Z,82.20
2019-03-09T10:15:25.196Z,83.60
2019-03-09T10:17:52.054Z,85.40
2019-03-09T10:20:18.537Z,85.20
2019-03-09T10:22:44.921Z,84.70
2019-03-09T10:25:11.557Z,83.70
2019-03-09T10:27:38.087Z,81.00
2019-03-09T10:30:11.115Z,80.00
2019-03-09T10:32:39.389Z,79.80
2019-03-09T10:35:06.843Z,79.20
2019-03-09T10:37:33.176Z,78.50
2019-03-09T10:39:59.495Z,78.60
2019-03-09T10:42:25.896Z,78.70
2019-03-09T10:44:52.216Z,78.60
2019-03-09T10:47:18.467Z,78.60
2019-03-09T10:49:44.961Z,79.20
2019-03-09T10:52:11.571Z,78.40
2019-03-09T10:54:37.937Z,79.10
2019-03-09T10:57:04.456Z,78.00
2019-03-09T10:59:31.002Z,77.90
2019-03-09T11:01:57.421Z,78.40
2019-03-09T11:04:27.532Z,78.10
2019-03-09T11:06:52.092Z,77.40
2019-03-09T11:09:20.529Z,78.40
2019-03-09T11:11:46.890Z,77.70
2019-03-09T11:14:13.234Z,76.50
2019-03-09T11:16:40.270Z,76.20
2019-03-09T11:19:06.646Z,75.90
2019-03-09T11:21:38.202Z,75.60
2019-03-09T11:24:24.552Z,75.40
2019-03-09T11:26:54.624Z,75.90
2019-03-09T11:29:21.524Z,76.10
2019-03-09T11:31:48.018Z,75.50
2019-03-09T11:34:14.467Z,76.20
2019-03-09T11:36:40.860Z,75.20
2019-03-09T11:39:07.414Z,75.20
2019-03-09T11:41:34.037Z,75.20
2019-03-09T11:44:00.341Z,75.50
2019-03-09T11:46:26.651Z,74.40
2019-03-09T11:48:53.063Z,73.20
2019-03-09T11:51:19.573Z,73.70
2019-03-09T11:53:45.838Z,73.30
2019-03-09T11:56:12.338Z,72.50
2019-03-09T11:58:38.808Z,71.70
2019-03-09T12:01:05.126Z,72.10
2019-03-09T12:03:31.470Z,70.50
2019-03-09T12:05:57.867Z,70.90
2019-03-09T12:08:24.200Z,71.20
2019-03-09T12:10:50.665Z,71.20
2019-03-09T12:13:17.259Z,71.50
2019-03-09T12:15:43.777Z,71.70
2019-03-09T12:18:10.133Z,70.90
2019-03-09T12:20:36.507Z,71.60
2019-03-09T12:23:14.479Z,71.70
2019-03-09T12:25:43.566Z,72.00
2019-03-09T12:28:10.081Z,72.40
2019-03-09T12:30:36.552Z,72.20
2019-03-09T12:33:02.906Z,71.70
2019-03-09T12:35:30.683Z,72.10
2019-03-09T12:37:57.054Z,72.00
2019-03-09T12:40:23.477Z,71.30
2019-03-09T12:42:49.873Z,71.60
2019-03-09T12:45:16.346Z,70.30
2019-03-09T12:47:42.804Z,70.30
2019-03-09T12:50:11.519Z,70.20
2019-03-09T12:52:37.719Z,69.70
2019-03-09T12:55:05.217Z,70.20
2019-03-09T12:57:31.502Z,70.40
2019-03-09T12:59:57.843Z,70.10
2019-03-09T13:02:24.243Z,70.00
2019-03-09T13:04:51.526Z,70.10
2019-03-09T13:07:18.087Z,69.60
2019-03-09T13:09:46.489Z,70.00
2019-03-09T13:12:12.732Z,69.60
2019-03-09T13:14:39.036Z,70.20
2019-03-09T13:17:05.631Z,70.30
2019-03-09T13:19:34.011Z,70.70
2019-03-09T13:22:01.900Z,71.10
2019-03-09T13:24:28.227Z,71.30
2019-03-09T13:26:54.478Z,71.80
2019-03-09T13:29:21.148Z,72.30
2019-03-09T13:31:47.525Z,72.70
2019-03-09T13:34:13.919Z,73.80
2019-03-09T13:36:40.172Z,73.70
2019-03-09T13:39:06.618Z,74.00
2019-03-09T13:41:33.113Z,73.80
2019-03-09T13:43:59.403Z,74.50
2019-03-09T13:46:25.747Z,74.40
2019-03-09T13:48:52.308Z,74.40
2019-03-09T13:51:18.677Z,73.70
2019-03-09T13:53:46.945Z,73.70
2019-03-09T13:56:13.387Z,73.40
2019-03-09T13:58:39.841Z,74.30
2019-03-09T14:01:06.255Z,73.20
2019-03-09T14:03:32.799Z,72.70
2019-03-09T14:05:59.225Z,73.00
2019-03-09T14:08:25.671Z,71.80
2019-03-09T14:10:52.110Z,70.90
2019-03-09T14:13:18.528Z,69.20
2019-03-09T14:15:45.076Z,68.80
2019-03-09T14:18:11.469Z,68.10
2019-03-09T14:20:37.841Z,67.90
2019-03-09T14:23:04.269Z,66.60
2019-03-09T14:25:30.580Z,67.00
2019-03-09T14:27:56.866Z,67.10
2019-03-09T14:30:23.370Z,66.40
2019-03-09T14:32:49.836Z,66.50
2019-03-09T14:35:16.099Z,66.80
2019-03-09T14:37:42.620Z,67.30
2019-03-09T14:40:14.755Z,66.80
2019-03-09T14:42:41.258Z,67.20
2019-03-09T14:45:16.132Z,67.40
2019-03-09T14:47:44.563Z,67.70
2019-03-09T14:50:11.542Z,68.30
2019-03-09T14:52:37.923Z,69.60
2019-03-09T14:55:06.659Z,70.60
2019-03-09T14:57:32.984Z,70.80
2019-03-09T14:59:59.276Z,73.00
2019-03-09T15:02:25.683Z,75.10
2019-03-09T15:04:51.968Z,75.50
2019-03-09T15:07:18.318Z,76.20
2019-03-09T15:09:44.775Z,76.10
2019-03-09T15:12:11.196Z,75.20
2019-03-09T15:14:37.500Z,75.60
2019-03-09T15:17:05.777Z,75.60
2019-03-09T15:19:32.181Z,74.90
2019-03-09T15:22:01.455Z,75.00
2019-03-09T15:24:27.740Z,74.30
2019-03-09T15:26:55.970Z,74.20
2019-03-09T15:29:22.746Z,73.70
2019-03-09T15:31:49.092Z,73.10
2019-03-09T15:34:15.541Z,73.10
2019-03-09T15:36:41.946Z,73.20
2019-03-09T15:39:08.579Z,73.00
2019-03-09T15:41:35.186Z,72.20
2019-03-09T15:44:01.700Z,70.90
2019-03-09T15:46:28.109Z,71.10
2019-03-09T15:48:54.825Z,69.60
2019-03-09T15:51:21.600Z,68.50
2019-03-09T15:53:48.329Z,67.50
2019-03-09T15:56:14.992Z,67.80
2019-03-09T15:58:41.344Z,68.50
2019-03-09T16:01:09.052Z,71.90
2019-03-09T16:03:37.900Z,74.10
2019-03-09T16:06:04.938Z,75.60
2019-03-09T16:08:31.323Z,76.20
2019-03-09T16:10:58.080Z,81.80
2019-03-09T16:13:24.581Z,86.50
2019-03-09T16:15:51.177Z,89.30
2019-03-09T16:18:17.490Z,90.60
2019-03-09T16:20:43.953Z,90.60
2019-03-09T16:23:13.800Z,90.60
2019-03-09T16:25:40.008Z,90.90
2019-03-09T16:28:06.366Z,91.20
2019-03-09T16:30:32.678Z,91.80
2019-03-09T16:32:58.982Z,91.70
2019-03-09T16:35:26.272Z,92.30
2019-03-09T16:37:52.834Z,93.20
2019-03-09T16:40:20.630Z,93.50
2019-03-09T16:42:47.104Z,93.40
2019-03-09T16:45:13.679Z,93.70
2019-03-09T16:47:40.031Z,94.00
2019-03-09T16:50:09.472Z,93.90
2019-03-09T16:52:35.965Z,93.90
2019-03-09T16:55:03.147Z,93.50
2019-03-09T16:57:29.556Z,94.00
2019-03-09T16:59:56.044Z,94.20
2019-03-09T17:02:27.860Z,94.30
2019-03-09T17:04:50.390Z,94.40
2019-03-09T17:07:17.120Z,94.20
2019-03-09T17:09:43.427Z,93.80
2019-03-09T17:12:09.657Z,94.10
2019-03-09T17:14:36.019Z,94.30
2019-03-09T17:17:02.392Z,94.40
2019-03-09T17:19:28.867Z,94.30
2019-03-09T17:21:55.195Z,94.30
2019-03-09T17:24:21.748Z,94.40
2019-03-09T17:26:48.106Z,94.40
2019-03-09T17:29:14.665Z,94.10
2019-03-09T17:31:41.267Z,94.40
2019-03-09T17:34:07.744Z,95.00
2019-03-09T17:36:34.206Z,94.90
2019-03-09T17:39:00.686Z,95.40
2019-03-09T17:41:26.944Z,96.00
2019-03-09T17:44:13.388Z,96.60
2019-03-09T17:46:41.134Z,96.10
2019-03-09T17:49:07.439Z,95.90
2019-03-09T17:51:33.690Z,95.50
2019-03-09T17:53:59.955Z,94.10
2019-03-09T17:56:26.193Z,93.90
2019-03-09T17:58:52.489Z,92.80
2019-03-09T18:01:18.881Z,92.80
2019-03-09T18:03:45.133Z,92.60
2019-03-09T18:06:11.610Z,92.70
2019-03-09T18:08:38.034Z,92.40
2019-03-09T18:11:08.051Z,92.80
2019-03-09T18:13:34.301Z,92.60
2019-03-09T18:16:00.629Z,93.00
2019-03-09T18:18:26.911Z,92.70
2019-03-09T18:20:53.301Z,92.70
2019-03-09T18:23:19.762Z,92.70
2019-03-09T18:25:46.479Z,93.00
2019-03-09T18:28:12.737Z,92.20
2019-03-09T18:30:39.091Z,92.40
2019-03-09T18:33:05.602Z,92.60
2019-03-09T18:35:31.828Z,92.80
2019-03-09T18:38:00.001Z,92.70
2019-03-09T18:40:26.359Z,92.90
2019-03-09T18:42:52.856Z,93.20
2019-03-09T18:45:20.795Z,93.30
2019-03-09T18:47:47.228Z,93.40
2019-03-09T18:50:13.697Z,93.50
2019-03-09T18:52:40.076Z,93.80
2019-03-09T18:55:07.139Z,93.60
2019-03-09T18:57:33.479Z,93.60
2019-03-09T18:59:59.905Z,93.80
2019-03-09T19:02:26.266Z,93.50
2019-03-09T19:04:52.585Z,93.50
2019-03-09T19:07:18.845Z,93.60
2019-03-09T19:09:45.159Z,93.80
2019-03-09T19:12:11.536Z,93.50
2019-03-09T19:14:37.801Z,93.40
2019-03-09T19:17:04.252Z,93.60
2019-03-09T19:19:30.684Z,93.50
2019-03-09T19:21:57.068Z,93.80
2019-03-09T19:24:23.709Z,93.50
2019-03-09T19:26:50.007Z,93.60
2019-03-09T19:29:16.276Z,93.50
2019-03-09T19:31:42.601Z,93.20
2019-03-09T19:34:09.061Z,93.00
2019-03-09T19:36:35.370Z,92.70
2019-03-09T19:39:01.750Z,93.10
2019-03-09T19:41:28.035Z,93.00
2019-03-09T19:43:54.354Z,93.00
2019-03-09T19:46:20.851Z,92.70
2019-03-09T19:48:47.130Z,92.60
2019-03-09T19:51:13.514Z,92.70
2019-03-09T19:53:39.893Z,92.50
2019-03-09T19:56:06.390Z,92.80
2019-03-09T19:58:32.687Z,92.70
2019-03-09T20:00:59.143Z,92.60
2019-03-09T20:03:25.524Z,92.70
2019-03-09T20:05:51.837Z,92.40
2019-03-09T20:08:18.294Z,92.50
2019-03-09T20:10:44.607Z,92.40
2019-03-09T20:13:10.939Z,92.00
2019-03-09T20:15:37.490Z,92.10
2019-03-09T20:18:04.003Z,92.10
2019-03-09T20:20:30.581Z,92.00
2019-03-09T20:22:56.934Z,92.00
2019-03-09T20:25:23.467Z,91.70
2019-03-09T20:27:49.761Z,91.60
2019-03-09T20:30:20.309Z,91.40
2019-03-09T20:32:47.276Z,91.40
2019-03-09T20:35:13.903Z,91.50
2019-03-09T20:37:40.255Z,91.60
2019-03-09T20:40:14.249Z,91.60
2019-03-09T20:42:40.514Z,91.30
2019-03-09T20:45:10.221Z,91.40
2019-03-09T20:47:36.638Z,91.30
2019-03-09T20:50:06.736Z,91.50
2019-03-09T20:52:34.286Z,91.40
2019-03-09T20:55:00.590Z,91.30
2019-03-09T20:57:26.875Z,91.10
2019-03-09T20:59:53.251Z,91.20
2019-03-09T21:02:19.520Z,91.20
2019-03-09T21:04:45.978Z,91.20
2019-03-09T21:07:12.419Z,90.90
2019-03-09T21:09:38.688Z,91.10
2019-03-09T21:12:05.100Z,91.00
2019-03-09T21:14:33.720Z,91.00
2019-03-09T21:16:59.848Z,90.70
2019-03-09T21:19:26.393Z,91.00
2019-03-09T21:21:52.782Z,90.90
2019-03-09T21:24:19.192Z,90.80
2019-03-09T21:26:45.517Z,90.70
2019-03-09T21:29:11.802Z,90.70
2019-03-09T21:31:38.164Z,90.60
2019-03-09T21:34:04.623Z,90.60
2019-03-09T21:36:33.064Z,90.60
2019-03-09T21:38:59.456Z,90.60
2019-03-09T21:41:25.869Z,90.50
2019-03-09T21:43:52.419Z,90.60
2019-03-09T21:46:18.827Z,90.50
2019-03-09T21:48:45.170Z,90.40
2019-03-09T21:51:11.671Z,90.30
2019-03-09T21:53:38.106Z,90.20
2019-03-09T21:56:04.968Z,89.80
2019-03-09T21:58:31.248Z,89.40
2019-03-09T22:00:57.609Z,90.10
2019-03-09T22:03:24.100Z,88.90
2019-03-09T22:05:50.443Z,89.00
2019-03-09T22:08:16.836Z,88.70
2019-03-09T22:10:43.285Z,88.80
2019-03-09T22:13:09.808Z,88.90
2019-03-09T22:15:36.164Z,88.80
2019-03-09T22:18:02.575Z,88.40
2019-03-09T22:20:29.429Z,88.10
2019-03-09T22:22:55.924Z,88.10
2019-03-09T22:25:22.228Z,87.40
2019-03-09T22:27:48.526Z,87.40
2019-03-09T22:30:17.301Z,88.10
2019-03-09T22:32:43.692Z,88.40
2019-03-09T22:35:11.412Z,88.20
2019-03-09T22:37:37.977Z,88.80
2019-03-09T22:40:07.962Z,89.30
2019-03-09T22:42:34.311Z,89.50
2019-03-09T22:45:00.703Z,89.30
2019-03-09T22:47:27.060Z,90.00
2019-03-09T22:49:54.299Z,90.00
2019-03-09T22:52:20.588Z,90.30
2019-03-09T22:54:49.078Z,90.40
2019-03-09T22:57:15.512Z,90.20
2019-03-09T22:59:41.922Z,90.40
2019-03-09T23:02:08.610Z,90.20
2019-03-09T23:04:34.895Z,89.90
2019-03-09T23:07:21.691Z,90.30
2019-03-09T23:09:48.171Z,90.30
2019-03-09T23:12:14.553Z,90.40
2019-03-09T23:14:41.347Z,90.80
2019-03-09T23:17:07.624Z,90.70
2019-03-09T23:19:34.150Z,90.80
2019-03-09T23:22:00.418Z,91.20
2019-03-09T23:24:26.774Z,91.30
2019-03-09T23:26:53.291Z,91.50
2019-03-09T23:29:19.828Z,91.50
2019-03-09T23:31:46.305Z,91.60
2019-03-09T23:34:12.686Z,91.30
2019-03-09T23:36:39.218Z,91.40
2019-03-09T23:39:06.258Z,91.50
2019-03-09T23:41:32.697Z,91.70
2019-03-09T23:43:59.126Z,92.10
2019-03-09T23:46:25.653Z,91.90
2019-03-09T23:48:52.402Z,91.60
2019-03-09T23:51:18.810Z,91.70
2019-03-09T23:53:45.168Z,91.90
2019-03-09T23:56:13.572Z,92.30
2019-03-09T23:58:40.018Z,92.30
